sensor_id;sensor_type;location;lat;lon;timestamp;P1;durP1;ratioP1;P2;durP2;ratioP2
55031;SDS011;40928;51.076;7.950;2023-08-12T00:01:04;5.65;;;2.15;;
55031;SDS011;40928;51.076;7.950;2023-08-12T00:03:32;4.28;;;2.65;;
55031;SDS011;40928;51.076;7.950;2023-08-12T00:05:58;4.78;;;2.60;;
55031;SDS011;40928;51.076;7.950;2023-08-12T00:08:25;4.15;;;2.40;;
55031;SDS011;40928;51.076;7.950;2023-08-12T00:10:51;5.82;;;2.70;;
55031;SDS011;40928;51.076;7.950;2023-08-12T00:13:21;6.93;;;3.47;;
55031;SDS011;40928;51.076;7.950;2023-08-12T00:15:51;4.80;;;2.92;;
55031;SDS011;40928;51.076;7.950;2023-08-12T00:18:18;6.20;;;2.55;;
55031;SDS011;40928;51.076;7.950;2023-08-12T00:20:44;4.50;;;2.35;;
55031;SDS011;40928;51.076;7.950;2023-08-12T00:23:10;3.22;;;2.80;;
55031;SDS011;40928;51.076;7.950;2023-08-12T00:25:39;7.40;;;3.15;;
55031;SDS011;40928;51.076;7.950;2023-08-12T00:28:05;8.48;;;4.97;;
55031;SDS011;40928;51.076;7.950;2023-08-12T00:30:38;6.32;;;3.45;;
55031;SDS011;40928;51.076;7.950;2023-08-12T00:33:03;6.55;;;3.90;;
55031;SDS011;40928;51.076;7.950;2023-08-12T00:35:29;7.07;;;4.50;;
55031;SDS011;40928;51.076;7.950;2023-08-12T00:37:55;3.88;;;2.90;;
55031;SDS011;40928;51.076;7.950;2023-08-12T00:40:21;8.38;;;3.78;;
55031;SDS011;40928;51.076;7.950;2023-08-12T00:42:51;5.03;;;3.28;;
55031;SDS011;40928;51.076;7.950;2023-08-12T00:45:21;7.90;;;2.88;;
55031;SDS011;40928;51.076;7.950;2023-08-12T00:47:48;4.20;;;3.05;;
55031;SDS011;40928;51.076;7.950;2023-08-12T00:50:14;5.65;;;3.22;;
55031;SDS011;40928;51.076;7.950;2023-08-12T00:52:41;3.90;;;3.05;;
55031;SDS011;40928;51.076;7.950;2023-08-12T00:55:07;5.00;;;2.55;;
55031;SDS011;40928;51.076;7.950;2023-08-12T00:57:33;7.53;;;3.63;;
55031;SDS011;40928;51.076;7.950;2023-08-12T01:00:00;7.82;;;3.67;;
55031;SDS011;40928;51.076;7.950;2023-08-12T01:02:28;5.68;;;3.17;;
55031;SDS011;40928;51.076;7.950;2023-08-12T01:04:55;5.60;;;3.17;;
55031;SDS011;40928;51.076;7.950;2023-08-12T01:07:22;8.00;;;3.97;;
55031;SDS011;40928;51.076;7.950;2023-08-12T01:09:47;4.35;;;3.47;;
55031;SDS011;40928;51.076;7.950;2023-08-12T01:12:17;4.75;;;3.50;;
55031;SDS011;40928;51.076;7.950;2023-08-12T01:17:41;6.47;;;3.38;;
55031;SDS011;40928;51.076;7.950;2023-08-12T01:20:08;8.85;;;4.00;;
55031;SDS011;40928;51.076;7.950;2023-08-12T01:22:41;4.72;;;3.72;;
55031;SDS011;40928;51.076;7.950;2023-08-12T01:25:16;6.53;;;4.28;;
55031;SDS011;40928;51.076;7.950;2023-08-12T01:27:41;10.57;;;5.00;;
55031;SDS011;40928;51.076;7.950;2023-08-12T01:30:07;5.78;;;4.20;;
55031;SDS011;40928;51.076;7.950;2023-08-12T01:32:41;7.03;;;3.97;;
55031;SDS011;40928;51.076;7.950;2023-08-12T01:37:42;7.78;;;3.80;;
55031;SDS011;40928;51.076;7.950;2023-08-12T01:40:09;4.93;;;3.58;;
55031;SDS011;40928;51.076;7.950;2023-08-12T01:42:36;6.70;;;3.63;;
55031;SDS011;40928;51.076;7.950;2023-08-12T01:45:05;5.93;;;3.53;;
55031;SDS011;40928;51.076;7.950;2023-08-12T01:47:35;6.35;;;4.32;;
55031;SDS011;40928;51.076;7.950;2023-08-12T01:50:03;8.90;;;5.35;;
55031;SDS011;40928;51.076;7.950;2023-08-12T01:52:35;5.70;;;4.10;;
55031;SDS011;40928;51.076;7.950;2023-08-12T01:55:02;10.85;;;5.03;;
55031;SDS011;40928;51.076;7.950;2023-08-12T01:57:30;7.38;;;4.97;;
55031;SDS011;40928;51.076;7.950;2023-08-12T01:59:57;6.40;;;4.50;;
55031;SDS011;40928;51.076;7.950;2023-08-12T02:02:24;7.90;;;5.28;;
55031;SDS011;40928;51.076;7.950;2023-08-12T02:04:50;7.13;;;5.47;;
55031;SDS011;40928;51.076;7.950;2023-08-12T02:07:17;10.45;;;6.70;;
55031;SDS011;40928;51.076;7.950;2023-08-12T02:09:45;11.57;;;7.30;;
55031;SDS011;40928;51.076;7.950;2023-08-12T02:12:13;11.00;;;6.90;;
55031;SDS011;40928;51.076;7.950;2023-08-12T02:14:52;14.70;;;7.40;;
55031;SDS011;40928;51.076;7.950;2023-08-12T02:17:20;10.27;;;6.97;;
55031;SDS011;40928;51.076;7.950;2023-08-12T02:19:50;13.32;;;7.25;;
55031;SDS011;40928;51.076;7.950;2023-08-12T02:22:19;9.10;;;6.20;;
55031;SDS011;40928;51.076;7.950;2023-08-12T02:24:45;7.63;;;5.65;;
55031;SDS011;40928;51.076;7.950;2023-08-12T02:27:14;7.43;;;5.50;;
55031;SDS011;40928;51.076;7.950;2023-08-12T02:29:44;8.77;;;5.43;;
55031;SDS011;40928;51.076;7.950;2023-08-12T02:32:11;11.13;;;7.07;;
55031;SDS011;40928;51.076;7.950;2023-08-12T02:34:38;9.88;;;5.93;;
55031;SDS011;40928;51.076;7.950;2023-08-12T02:37:09;12.98;;;8.18;;
55031;SDS011;40928;51.076;7.950;2023-08-12T02:39:38;9.30;;;7.00;;
55031;SDS011;40928;51.076;7.950;2023-08-12T02:42:04;8.05;;;5.90;;
55031;SDS011;40928;51.076;7.950;2023-08-12T02:44:31;12.18;;;7.88;;
55031;SDS011;40928;51.076;7.950;2023-08-12T02:46:59;14.70;;;8.27;;
55031;SDS011;40928;51.076;7.950;2023-08-12T02:49:24;10.45;;;7.00;;
55031;SDS011;40928;51.076;7.950;2023-08-12T02:51:54;9.40;;;6.18;;
55031;SDS011;40928;51.076;7.950;2023-08-12T02:54:20;10.23;;;6.50;;
55031;SDS011;40928;51.076;7.950;2023-08-12T02:56:46;8.27;;;6.57;;
55031;SDS011;40928;51.076;7.950;2023-08-12T02:59:14;12.63;;;9.10;;
55031;SDS011;40928;51.076;7.950;2023-08-12T03:01:44;11.68;;;8.18;;
55031;SDS011;40928;51.076;7.950;2023-08-12T03:04:13;12.23;;;8.43;;
55031;SDS011;40928;51.076;7.950;2023-08-12T03:06:38;14.57;;;7.60;;
55031;SDS011;40928;51.076;7.950;2023-08-12T03:09:04;10.10;;;8.18;;
55031;SDS011;40928;51.076;7.950;2023-08-12T03:11:37;11.98;;;8.15;;
55031;SDS011;40928;51.076;7.950;2023-08-12T03:14:11;11.63;;;8.82;;
55031;SDS011;40928;51.076;7.950;2023-08-12T03:16:36;14.82;;;10.43;;
55031;SDS011;40928;51.076;7.950;2023-08-12T03:19:03;18.00;;;12.43;;
55031;SDS011;40928;51.076;7.950;2023-08-12T03:21:32;17.02;;;10.65;;
55031;SDS011;40928;51.076;7.950;2023-08-12T03:24:04;14.13;;;10.48;;
55031;SDS011;40928;51.076;7.950;2023-08-12T03:26:32;17.05;;;12.50;;
55031;SDS011;40928;51.076;7.950;2023-08-12T03:28:59;11.23;;;8.57;;
55031;SDS011;40928;51.076;7.950;2023-08-12T03:31:27;10.80;;;7.95;;
55031;SDS011;40928;51.076;7.950;2023-08-12T03:33:54;11.93;;;8.57;;
55031;SDS011;40928;51.076;7.950;2023-08-12T03:36:23;9.07;;;7.15;;
55031;SDS011;40928;51.076;7.950;2023-08-12T03:38:49;9.55;;;7.50;;
55031;SDS011;40928;51.076;7.950;2023-08-12T03:41:21;9.82;;;7.75;;
55031;SDS011;40928;51.076;7.950;2023-08-12T03:43:48;12.50;;;8.60;;
55031;SDS011;40928;51.076;7.950;2023-08-12T03:46:17;12.07;;;7.95;;
55031;SDS011;40928;51.076;7.950;2023-08-12T03:48:43;9.18;;;6.88;;
55031;SDS011;40928;51.076;7.950;2023-08-12T03:51:11;6.38;;;5.40;;
55031;SDS011;40928;51.076;7.950;2023-08-12T03:53:39;7.78;;;5.47;;
55031;SDS011;40928;51.076;7.950;2023-08-12T03:56:06;11.60;;;8.65;;
55031;SDS011;40928;51.076;7.950;2023-08-12T03:58:33;7.53;;;6.13;;
55031;SDS011;40928;51.076;7.950;2023-08-12T04:01:01;6.82;;;5.90;;
55031;SDS011;40928;51.076;7.950;2023-08-12T04:03:27;5.47;;;3.78;;
55031;SDS011;40928;51.076;7.950;2023-08-12T04:05:56;4.65;;;3.03;;
55031;SDS011;40928;51.076;7.950;2023-08-12T04:08:22;5.07;;;3.38;;
55031;SDS011;40928;51.076;7.950;2023-08-12T04:10:49;5.65;;;4.50;;
55031;SDS011;40928;51.076;7.950;2023-08-12T04:13:16;4.80;;;2.38;;
55031;SDS011;40928;51.076;7.950;2023-08-12T04:15:42;3.15;;;2.65;;
55031;SDS011;40928;51.076;7.950;2023-08-12T04:18:10;3.55;;;3.08;;
55031;SDS011;40928;51.076;7.950;2023-08-12T04:20:39;3.50;;;2.92;;
55031;SDS011;40928;51.076;7.950;2023-08-12T04:23:06;3.20;;;2.90;;
55031;SDS011;40928;51.076;7.950;2023-08-12T04:25:35;3.53;;;3.03;;
55031;SDS011;40928;51.076;7.950;2023-08-12T04:28:01;4.35;;;3.95;;
55031;SDS011;40928;51.076;7.950;2023-08-12T04:30:33;6.45;;;3.38;;
55031;SDS011;40928;51.076;7.950;2023-08-12T04:33:01;2.85;;;2.53;;
55031;SDS011;40928;51.076;7.950;2023-08-12T04:35:30;2.63;;;2.35;;
55031;SDS011;40928;51.076;7.950;2023-08-12T04:37:57;3.20;;;2.45;;
55031;SDS011;40928;51.076;7.950;2023-08-12T04:40:26;2.58;;;2.35;;
55031;SDS011;40928;51.076;7.950;2023-08-12T04:42:59;3.75;;;2.55;;
55031;SDS011;40928;51.076;7.950;2023-08-12T04:45:25;5.03;;;2.63;;
55031;SDS011;40928;51.076;7.950;2023-08-12T04:47:58;3.17;;;2.10;;
55031;SDS011;40928;51.076;7.950;2023-08-12T04:50:31;3.58;;;2.67;;
55031;SDS011;40928;51.076;7.950;2023-08-12T04:53:00;6.32;;;5.10;;
55031;SDS011;40928;51.076;7.950;2023-08-12T04:55:25;3.63;;;2.65;;
55031;SDS011;40928;51.076;7.950;2023-08-12T04:57:51;3.00;;;2.47;;
55031;SDS011;40928;51.076;7.950;2023-08-12T05:00:23;2.78;;;2.53;;
55031;SDS011;40928;51.076;7.950;2023-08-12T05:02:53;3.85;;;3.35;;
55031;SDS011;40928;51.076;7.950;2023-08-12T05:05:20;4.80;;;3.78;;
55031;SDS011;40928;51.076;7.950;2023-08-12T05:10:22;3.03;;;2.67;;
55031;SDS011;40928;51.076;7.950;2023-08-12T05:12:57;3.78;;;2.55;;
55031;SDS011;40928;51.076;7.950;2023-08-12T05:15:24;4.40;;;3.60;;
55031;SDS011;40928;51.076;7.950;2023-08-12T05:17:50;6.55;;;4.93;;
55031;SDS011;40928;51.076;7.950;2023-08-12T05:20:21;3.65;;;3.13;;
55031;SDS011;40928;51.076;7.950;2023-08-12T05:22:52;13.20;;;9.40;;
55031;SDS011;40928;51.076;7.950;2023-08-12T05:25:21;18.70;;;13.88;;
55031;SDS011;40928;51.076;7.950;2023-08-12T05:27:49;24.33;;;17.63;;
55031;SDS011;40928;51.076;7.950;2023-08-12T05:30:15;30.25;;;21.58;;
55031;SDS011;40928;51.076;7.950;2023-08-12T05:32:47;20.13;;;14.07;;
55031;SDS011;40928;51.076;7.950;2023-08-12T05:35:12;12.32;;;8.30;;
55031;SDS011;40928;51.076;7.950;2023-08-12T05:37:38;6.60;;;5.43;;
55031;SDS011;40928;51.076;7.950;2023-08-12T05:40:04;5.72;;;4.55;;
55031;SDS011;40928;51.076;7.950;2023-08-12T05:42:36;5.28;;;3.67;;
55031;SDS011;40928;51.076;7.950;2023-08-12T05:45:02;5.10;;;3.60;;
55031;SDS011;40928;51.076;7.950;2023-08-12T05:47:29;4.82;;;3.97;;
55031;SDS011;40928;51.076;7.950;2023-08-12T05:49:54;5.38;;;4.20;;
55031;SDS011;40928;51.076;7.950;2023-08-12T05:52:20;4.20;;;2.70;;
55031;SDS011;40928;51.076;7.950;2023-08-12T05:54:45;5.07;;;3.63;;
55031;SDS011;40928;51.076;7.950;2023-08-12T05:57:14;3.53;;;2.88;;
55031;SDS011;40928;51.076;7.950;2023-08-12T05:59:43;3.47;;;3.05;;
55031;SDS011;40928;51.076;7.950;2023-08-12T06:02:29;3.92;;;3.47;;
55031;SDS011;40928;51.076;7.950;2023-08-12T06:05:01;4.00;;;3.28;;
55031;SDS011;40928;51.076;7.950;2023-08-12T06:07:27;4.05;;;3.20;;
55031;SDS011;40928;51.076;7.950;2023-08-12T06:09:54;7.18;;;3.72;;
55031;SDS011;40928;51.076;7.950;2023-08-12T06:12:21;3.17;;;2.88;;
55031;SDS011;40928;51.076;7.950;2023-08-12T06:14:50;4.70;;;3.30;;
55031;SDS011;40928;51.076;7.950;2023-08-12T06:17:16;4.60;;;3.65;;
55031;SDS011;40928;51.076;7.950;2023-08-12T06:19:43;4.78;;;3.60;;
55031;SDS011;40928;51.076;7.950;2023-08-12T06:22:10;6.93;;;4.15;;
55031;SDS011;40928;51.076;7.950;2023-08-12T06:24:37;7.53;;;4.63;;
55031;SDS011;40928;51.076;7.950;2023-08-12T06:27:02;5.40;;;4.65;;
55031;SDS011;40928;51.076;7.950;2023-08-12T06:29:28;5.15;;;3.60;;
55031;SDS011;40928;51.076;7.950;2023-08-12T06:31:59;6.10;;;4.07;;
55031;SDS011;40928;51.076;7.950;2023-08-12T06:34:25;6.57;;;4.30;;
55031;SDS011;40928;51.076;7.950;2023-08-12T06:36:52;4.45;;;3.80;;
55031;SDS011;40928;51.076;7.950;2023-08-12T06:39:17;8.45;;;4.15;;
55031;SDS011;40928;51.076;7.950;2023-08-12T06:41:44;8.98;;;3.80;;
55031;SDS011;40928;51.076;7.950;2023-08-12T06:44:10;5.50;;;4.32;;
55031;SDS011;40928;51.076;7.950;2023-08-12T06:46:39;4.38;;;3.50;;
55031;SDS011;40928;51.076;7.950;2023-08-12T06:49:04;5.15;;;3.92;;
55031;SDS011;40928;51.076;7.950;2023-08-12T06:51:33;3.42;;;2.97;;
55031;SDS011;40928;51.076;7.950;2023-08-12T06:53:59;4.00;;;2.95;;
55031;SDS011;40928;51.076;7.950;2023-08-12T06:56:27;3.67;;;2.97;;
55031;SDS011;40928;51.076;7.950;2023-08-12T06:58:56;3.70;;;2.63;;
55031;SDS011;40928;51.076;7.950;2023-08-12T07:01:24;4.95;;;2.97;;
55031;SDS011;40928;51.076;7.950;2023-08-12T07:03:55;5.82;;;3.10;;
55031;SDS011;40928;51.076;7.950;2023-08-12T07:06:22;5.50;;;3.10;;
55031;SDS011;40928;51.076;7.950;2023-08-12T07:08:49;4.15;;;3.58;;
55031;SDS011;40928;51.076;7.950;2023-08-12T07:11:15;5.25;;;3.47;;
55031;SDS011;40928;51.076;7.950;2023-08-12T07:13:52;5.05;;;3.45;;
55031;SDS011;40928;51.076;7.950;2023-08-12T07:16:21;4.15;;;3.35;;
55031;SDS011;40928;51.076;7.950;2023-08-12T07:18:47;5.28;;;3.40;;
55031;SDS011;40928;51.076;7.950;2023-08-12T07:21:14;5.28;;;3.08;;
55031;SDS011;40928;51.076;7.950;2023-08-12T07:23:41;4.82;;;2.97;;
55031;SDS011;40928;51.076;7.950;2023-08-12T07:26:09;5.70;;;3.28;;
55031;SDS011;40928;51.076;7.950;2023-08-12T07:28:35;5.43;;;2.75;;
55031;SDS011;40928;51.076;7.950;2023-08-12T07:31:06;5.35;;;3.30;;
55031;SDS011;40928;51.076;7.950;2023-08-12T07:33:44;5.18;;;3.42;;
55031;SDS011;40928;51.076;7.950;2023-08-12T07:36:16;7.00;;;3.90;;
55031;SDS011;40928;51.076;7.950;2023-08-12T07:38:42;5.53;;;3.00;;
55031;SDS011;40928;51.076;7.950;2023-08-12T07:41:11;3.83;;;2.83;;
55031;SDS011;40928;51.076;7.950;2023-08-12T07:43:40;3.55;;;2.60;;
55031;SDS011;40928;51.076;7.950;2023-08-12T07:46:12;3.70;;;2.20;;
55031;SDS011;40928;51.076;7.950;2023-08-12T07:49:06;2.72;;;2.45;;
55031;SDS011;40928;51.076;7.950;2023-08-12T07:51:32;3.60;;;2.72;;
55031;SDS011;40928;51.076;7.950;2023-08-12T07:53:58;3.95;;;2.50;;
55031;SDS011;40928;51.076;7.950;2023-08-12T07:56:26;8.20;;;3.30;;
55031;SDS011;40928;51.076;7.950;2023-08-12T07:58:51;3.92;;;2.55;;
55031;SDS011;40928;51.076;7.950;2023-08-12T08:01:17;5.38;;;3.00;;
55031;SDS011;40928;51.076;7.950;2023-08-12T08:03:42;4.82;;;3.78;;
55031;SDS011;40928;51.076;7.950;2023-08-12T08:06:08;7.25;;;4.75;;
55031;SDS011;40928;51.076;7.950;2023-08-12T08:08:37;6.97;;;4.47;;
55031;SDS011;40928;51.076;7.950;2023-08-12T08:11:03;6.65;;;4.55;;
55031;SDS011;40928;51.076;7.950;2023-08-12T08:13:32;8.48;;;5.40;;
55031;SDS011;40928;51.076;7.950;2023-08-12T08:15:58;8.07;;;4.75;;
55031;SDS011;40928;51.076;7.950;2023-08-12T08:18:26;6.85;;;4.30;;
55031;SDS011;40928;51.076;7.950;2023-08-12T08:20:52;6.50;;;4.47;;
55031;SDS011;40928;51.076;7.950;2023-08-12T08:23:24;5.32;;;3.58;;
55031;SDS011;40928;51.076;7.950;2023-08-12T08:25:51;5.35;;;3.78;;
55031;SDS011;40928;51.076;7.950;2023-08-12T08:28:17;7.53;;;3.45;;
55031;SDS011;40928;51.076;7.950;2023-08-12T08:30:43;6.25;;;3.63;;
55031;SDS011;40928;51.076;7.950;2023-08-12T08:33:11;4.15;;;3.47;;
55031;SDS011;40928;51.076;7.950;2023-08-12T08:35:42;4.47;;;3.25;;
55031;SDS011;40928;51.076;7.950;2023-08-12T08:38:08;3.35;;;2.67;;
55031;SDS011;40928;51.076;7.950;2023-08-12T08:40:35;3.83;;;2.40;;
55031;SDS011;40928;51.076;7.950;2023-08-12T08:43:04;4.55;;;2.13;;
55031;SDS011;40928;51.076;7.950;2023-08-12T08:45:33;3.10;;;2.05;;
55031;SDS011;40928;51.076;7.950;2023-08-12T08:48:07;3.60;;;1.83;;
55031;SDS011;40928;51.076;7.950;2023-08-12T08:50:38;4.45;;;1.58;;
55031;SDS011;40928;51.076;7.950;2023-08-12T08:53:07;5.50;;;1.48;;
55031;SDS011;40928;51.076;7.950;2023-08-12T08:55:34;1.92;;;1.42;;
55031;SDS011;40928;51.076;7.950;2023-08-12T08:58:02;3.72;;;1.92;;
55031;SDS011;40928;51.076;7.950;2023-08-12T09:00:29;2.25;;;1.58;;
55031;SDS011;40928;51.076;7.950;2023-08-12T09:02:55;2.63;;;1.40;;
55031;SDS011;40928;51.076;7.950;2023-08-12T09:05:22;2.25;;;1.80;;
55031;SDS011;40928;51.076;7.950;2023-08-12T09:07:53;2.25;;;1.30;;
55031;SDS011;40928;51.076;7.950;2023-08-12T09:10:22;3.17;;;1.50;;
55031;SDS011;40928;51.076;7.950;2023-08-12T09:12:54;1.83;;;1.27;;
55031;SDS011;40928;51.076;7.950;2023-08-12T09:15:20;2.85;;;1.40;;
55031;SDS011;40928;51.076;7.950;2023-08-12T09:17:46;3.47;;;1.08;;
55031;SDS011;40928;51.076;7.950;2023-08-12T09:20:11;4.03;;;1.30;;
55031;SDS011;40928;51.076;7.950;2023-08-12T09:22:38;1.70;;;1.20;;
55031;SDS011;40928;51.076;7.950;2023-08-12T09:25:04;2.03;;;1.05;;
55031;SDS011;40928;51.076;7.950;2023-08-12T09:27:31;1.65;;;1.08;;
55031;SDS011;40928;51.076;7.950;2023-08-12T09:29:58;1.13;;;1.00;;
55031;SDS011;40928;51.076;7.950;2023-08-12T09:32:24;1.10;;;0.75;;
55031;SDS011;40928;51.076;7.950;2023-08-12T09:34:58;2.67;;;0.95;;
55031;SDS011;40928;51.076;7.950;2023-08-12T09:37:28;1.67;;;1.30;;
55031;SDS011;40928;51.076;7.950;2023-08-12T09:39:57;1.80;;;1.08;;
55031;SDS011;40928;51.076;7.950;2023-08-12T09:42:25;1.83;;;1.10;;
55031;SDS011;40928;51.076;7.950;2023-08-12T09:44:57;1.33;;;1.05;;
55031;SDS011;40928;51.076;7.950;2023-08-12T09:47:27;2.92;;;1.23;;
55031;SDS011;40928;51.076;7.950;2023-08-12T09:49:54;1.52;;;1.10;;
55031;SDS011;40928;51.076;7.950;2023-08-12T09:52:23;2.10;;;1.00;;
55031;SDS011;40928;51.076;7.950;2023-08-12T09:54:52;2.55;;;1.10;;
55031;SDS011;40928;51.076;7.950;2023-08-12T09:57:23;1.88;;;1.13;;
55031;SDS011;40928;51.076;7.950;2023-08-12T09:59:54;2.63;;;0.80;;
55031;SDS011;40928;51.076;7.950;2023-08-12T10:02:22;1.38;;;0.98;;
55031;SDS011;40928;51.076;7.950;2023-08-12T10:04:54;1.30;;;0.90;;
55031;SDS011;40928;51.076;7.950;2023-08-12T10:07:24;1.60;;;0.82;;
55031;SDS011;40928;51.076;7.950;2023-08-12T10:09:52;2.40;;;0.90;;
55031;SDS011;40928;51.076;7.950;2023-08-12T10:12:46;2.75;;;1.00;;
55031;SDS011;40928;51.076;7.950;2023-08-12T10:15:15;1.35;;;1.08;;
55031;SDS011;40928;51.076;7.950;2023-08-12T10:17:41;2.00;;;1.00;;
55031;SDS011;40928;51.076;7.950;2023-08-12T10:20:08;3.65;;;1.20;;
55031;SDS011;40928;51.076;7.950;2023-08-12T10:22:34;2.97;;;1.20;;
55031;SDS011;40928;51.076;7.950;2023-08-12T10:25:01;1.25;;;1.00;;
55031;SDS011;40928;51.076;7.950;2023-08-12T10:27:28;3.72;;;0.80;;
55031;SDS011;40928;51.076;7.950;2023-08-12T10:29:57;4.45;;;1.45;;
55031;SDS011;40928;51.076;7.950;2023-08-12T10:32:23;2.33;;;0.82;;
55031;SDS011;40928;51.076;7.950;2023-08-12T10:34:56;3.40;;;1.10;;
55031;SDS011;40928;51.076;7.950;2023-08-12T10:37:25;3.00;;;0.88;;
55031;SDS011;40928;51.076;7.950;2023-08-12T10:39:57;6.60;;;1.02;;
55031;SDS011;40928;51.076;7.950;2023-08-12T10:45:07;2.47;;;0.90;;
55031;SDS011;40928;51.076;7.950;2023-08-12T10:53:22;2.63;;;0.80;;
55031;SDS011;40928;51.076;7.950;2023-08-12T10:55:49;4.40;;;0.90;;
55031;SDS011;40928;51.076;7.950;2023-08-12T10:59:00;2.72;;;0.80;;
55031;SDS011;40928;51.076;7.950;2023-08-12T11:01:08;2.58;;;0.98;;
55031;SDS011;40928;51.076;7.950;2023-08-12T11:03:41;2.67;;;1.10;;
55031;SDS011;40928;51.076;7.950;2023-08-12T11:06:09;1.48;;;0.75;;
55031;SDS011;40928;51.076;7.950;2023-08-12T11:08:53;1.38;;;0.75;;
55031;SDS011;40928;51.076;7.950;2023-08-12T11:11:24;3.03;;;0.90;;
55031;SDS011;40928;51.076;7.950;2023-08-12T11:13:53;0.70;;;0.63;;
55031;SDS011;40928;51.076;7.950;2023-08-12T11:16:30;1.70;;;0.90;;
55031;SDS011;40928;51.076;7.950;2023-08-12T11:19:00;1.67;;;0.82;;
55031;SDS011;40928;51.076;7.950;2023-08-12T11:21:27;2.08;;;1.02;;
55031;SDS011;40928;51.076;7.950;2023-08-12T11:23:54;0.98;;;0.77;;
55031;SDS011;40928;51.076;7.950;2023-08-12T11:26:20;1.98;;;0.70;;
55031;SDS011;40928;51.076;7.950;2023-08-12T11:28:48;2.38;;;1.10;;
55031;SDS011;40928;51.076;7.950;2023-08-12T11:31:14;2.97;;;1.00;;
55031;SDS011;40928;51.076;7.950;2023-08-12T11:33:43;3.75;;;1.05;;
55031;SDS011;40928;51.076;7.950;2023-08-12T11:36:12;1.98;;;0.93;;
55031;SDS011;40928;51.076;7.950;2023-08-12T11:38:38;1.42;;;0.68;;
55031;SDS011;40928;51.076;7.950;2023-08-12T11:41:03;2.03;;;1.00;;
55031;SDS011;40928;51.076;7.950;2023-08-12T11:43:29;1.65;;;0.80;;
55031;SDS011;40928;51.076;7.950;2023-08-12T11:45:59;3.20;;;0.80;;
55031;SDS011;40928;51.076;7.950;2023-08-12T11:48:25;2.55;;;1.30;;
55031;SDS011;40928;51.076;7.950;2023-08-12T11:50:52;4.35;;;1.17;;
55031;SDS011;40928;51.076;7.950;2023-08-12T11:53:19;2.70;;;1.20;;
55031;SDS011;40928;51.076;7.950;2023-08-12T11:55:45;1.40;;;0.90;;
55031;SDS011;40928;51.076;7.950;2023-08-12T11:58:11;3.00;;;0.80;;
55031;SDS011;40928;51.076;7.950;2023-08-12T12:00:38;3.05;;;1.45;;
55031;SDS011;40928;51.076;7.950;2023-08-12T12:03:04;3.75;;;0.98;;
55031;SDS011;40928;51.076;7.950;2023-08-12T12:05:34;4.97;;;1.05;;
55031;SDS011;40928;51.076;7.950;2023-08-12T12:08:06;3.72;;;1.80;;
55031;SDS011;40928;51.076;7.950;2023-08-12T12:10:34;2.90;;;1.02;;
55031;SDS011;40928;51.076;7.950;2023-08-12T12:13:01;3.05;;;1.00;;
55031;SDS011;40928;51.076;7.950;2023-08-12T12:15:28;2.60;;;1.00;;
55031;SDS011;40928;51.076;7.950;2023-08-12T12:17:54;2.08;;;1.17;;
55031;SDS011;40928;51.076;7.950;2023-08-12T12:20:20;2.03;;;1.13;;
55031;SDS011;40928;51.076;7.950;2023-08-12T12:22:47;11.38;;;1.15;;
55031;SDS011;40928;51.076;7.950;2023-08-12T12:25:13;2.70;;;0.90;;
55031;SDS011;40928;51.076;7.950;2023-08-12T12:27:41;1.80;;;0.80;;
55031;SDS011;40928;51.076;7.950;2023-08-12T12:30:07;2.65;;;1.10;;
55031;SDS011;40928;51.076;7.950;2023-08-12T12:32:34;5.93;;;1.30;;
55031;SDS011;40928;51.076;7.950;2023-08-12T12:35:00;2.97;;;1.08;;
55031;SDS011;40928;51.076;7.950;2023-08-12T12:37:25;2.72;;;0.98;;
55031;SDS011;40928;51.076;7.950;2023-08-12T12:39:51;2.15;;;1.33;;
55031;SDS011;40928;51.076;7.950;2023-08-12T12:42:19;2.13;;;1.02;;
55031;SDS011;40928;51.076;7.950;2023-08-12T12:44:45;2.83;;;0.93;;
55031;SDS011;40928;51.076;7.950;2023-08-12T12:47:10;1.50;;;1.00;;
55031;SDS011;40928;51.076;7.950;2023-08-12T12:49:38;1.08;;;0.90;;
55031;SDS011;40928;51.076;7.950;2023-08-12T12:52:04;2.88;;;1.00;;
55031;SDS011;40928;51.076;7.950;2023-08-12T12:54:30;5.15;;;1.00;;
55031;SDS011;40928;51.076;7.950;2023-08-12T12:56:56;1.45;;;0.85;;
55031;SDS011;40928;51.076;7.950;2023-08-12T12:59:22;1.75;;;1.00;;
55031;SDS011;40928;51.076;7.950;2023-08-12T13:01:48;3.40;;;0.80;;
55031;SDS011;40928;51.076;7.950;2023-08-12T13:04:14;4.07;;;1.27;;
55031;SDS011;40928;51.076;7.950;2023-08-12T13:06:39;0.93;;;0.70;;
55031;SDS011;40928;51.076;7.950;2023-08-12T13:09:15;2.80;;;1.00;;
55031;SDS011;40928;51.076;7.950;2023-08-12T13:11:40;3.22;;;1.25;;
55031;SDS011;40928;51.076;7.950;2023-08-12T13:14:06;5.53;;;1.02;;
55031;SDS011;40928;51.076;7.950;2023-08-12T13:16:32;1.67;;;0.85;;
55031;SDS011;40928;51.076;7.950;2023-08-12T13:18:58;2.83;;;1.42;;
55031;SDS011;40928;51.076;7.950;2023-08-12T13:21:25;4.75;;;1.08;;
55031;SDS011;40928;51.076;7.950;2023-08-12T13:23:51;2.35;;;1.05;;
55031;SDS011;40928;51.076;7.950;2023-08-12T13:26:16;2.92;;;1.10;;
55031;SDS011;40928;51.076;7.950;2023-08-12T13:28:43;2.40;;;1.05;;
55031;SDS011;40928;51.076;7.950;2023-08-12T13:31:09;3.45;;;1.17;;
55031;SDS011;40928;51.076;7.950;2023-08-12T13:33:40;1.92;;;1.00;;
55031;SDS011;40928;51.076;7.950;2023-08-12T13:36:05;2.72;;;1.10;;
55031;SDS011;40928;51.076;7.950;2023-08-12T13:38:31;1.98;;;0.98;;
55031;SDS011;40928;51.076;7.950;2023-08-12T13:40:56;1.85;;;1.20;;
55031;SDS011;40928;51.076;7.950;2023-08-12T13:43:22;3.95;;;1.25;;
55031;SDS011;40928;51.076;7.950;2023-08-12T13:45:50;2.85;;;1.10;;
55031;SDS011;40928;51.076;7.950;2023-08-12T13:48:16;2.33;;;1.27;;
55031;SDS011;40928;51.076;7.950;2023-08-12T13:50:42;1.50;;;1.30;;
55031;SDS011;40928;51.076;7.950;2023-08-12T13:53:07;1.83;;;1.10;;
55031;SDS011;40928;51.076;7.950;2023-08-12T13:55:33;4.90;;;1.25;;
55031;SDS011;40928;51.076;7.950;2023-08-12T13:57:58;2.92;;;1.35;;
55031;SDS011;40928;51.076;7.950;2023-08-12T14:00:24;2.15;;;1.00;;
55031;SDS011;40928;51.076;7.950;2023-08-12T14:02:52;5.82;;;1.08;;
55031;SDS011;40928;51.076;7.950;2023-08-12T14:05:18;4.35;;;2.10;;
55031;SDS011;40928;51.076;7.950;2023-08-12T14:07:45;10.68;;;3.58;;
55031;SDS011;40928;51.076;7.950;2023-08-12T14:10:13;2.58;;;1.38;;
55031;SDS011;40928;51.076;7.950;2023-08-12T14:12:39;1.88;;;0.70;;
55031;SDS011;40928;51.076;7.950;2023-08-12T14:15:04;4.13;;;0.88;;
55031;SDS011;40928;51.076;7.950;2023-08-12T14:17:36;4.45;;;1.77;;
55031;SDS011;40928;51.076;7.950;2023-08-12T14:20:02;2.67;;;0.90;;
55031;SDS011;40928;51.076;7.950;2023-08-12T14:22:30;2.67;;;1.00;;
55031;SDS011;40928;51.076;7.950;2023-08-12T14:24:56;3.03;;;1.00;;
55031;SDS011;40928;51.076;7.950;2023-08-12T14:27:21;2.05;;;1.20;;
55031;SDS011;40928;51.076;7.950;2023-08-12T14:29:47;2.60;;;1.05;;
55031;SDS011;40928;51.076;7.950;2023-08-12T14:32:12;4.07;;;1.08;;
55031;SDS011;40928;51.076;7.950;2023-08-12T14:34:44;3.10;;;1.80;;
55031;SDS011;40928;51.076;7.950;2023-08-12T14:37:11;1.10;;;0.80;;
55031;SDS011;40928;51.076;7.950;2023-08-12T14:39:37;2.00;;;0.90;;
55031;SDS011;40928;51.076;7.950;2023-08-12T14:42:03;1.50;;;0.80;;
55031;SDS011;40928;51.076;7.950;2023-08-12T14:44:30;2.15;;;0.80;;
55031;SDS011;40928;51.076;7.950;2023-08-12T14:47:00;4.60;;;1.30;;
55031;SDS011;40928;51.076;7.950;2023-08-12T14:49:25;2.70;;;1.10;;
55031;SDS011;40928;51.076;7.950;2023-08-12T14:51:54;2.88;;;0.80;;
55031;SDS011;40928;51.076;7.950;2023-08-12T14:54:22;1.65;;;0.85;;
55031;SDS011;40928;51.076;7.950;2023-08-12T14:56:47;3.05;;;1.00;;
55031;SDS011;40928;51.076;7.950;2023-08-12T14:59:13;1.92;;;0.70;;
55031;SDS011;40928;51.076;7.950;2023-08-12T15:01:38;2.95;;;0.70;;
55031;SDS011;40928;51.076;7.950;2023-08-12T15:04:04;1.65;;;0.70;;
55031;SDS011;40928;51.076;7.950;2023-08-12T15:06:30;1.27;;;0.55;;